EGKKLDDU

Guest
Details From EGKK - London Gatwick
To LDDU - Dubrovnik
Flight Number -
Tags Generated
Created
Modified
Stats Distance 913 nm / 1,690 km
Max Altitude 0 ft / 0 m
Waypoints 6
Social Downloads 3
Likes 0
Share VATSIM

Download

Looking for another format? Having issues loading an existing format? Contact us
Advertisement - Login to hide

Notes

Generated

Route

EGKK VUN INTEX ULPIN CV LDDU

ID Type Via Altitude Latitude Longitude Leg Dist Tot Dist Heading (true) Name
O EGKK APT - 0 ft / 0 m 51.14691˚ -0.21257˚ - 0 nm - -
VUN NDB - 0 ft / 0 m 49.12222˚ 5.46889˚ 250 nm 250 nm 117° / 121° VERDUN NDB
INTEX FIX - 0 ft / 0 m 47.18250˚ 9.85972˚ 210 nm 461 nm 122° / 125° -
ULPIN FIX - 0 ft / 0 m 44.70361˚ 14.65389˚ 249 nm 710 nm 125° / 128° -
CV NDB - 0 ft / 0 m 42.58519˚ 18.21264˚ 200 nm 910 nm 128° / 131° CAVTAT NDB
O LDDU APT - 0 ft / 0 m 42.56986˚ 18.24681˚ 1 nm 912 nm 121° / 121° -

Altitude Profile

Advertisement - Login to hide

Weather


0- 5 10 15 20 25 30 35+ Temperature / ° C

Clouds and Precipitation
Forecast for 2018-05-23 00:00 UTC. Updated an hour ago

Ground ~20,000 ft ~40,000 ft Winds

EGKK

Details ICAO EGKK (LGW)
Name London Gatwick
Region United Kingdom
Timezone Europe/London (UTC+1.0)
Stats Elevation 196 ft / 60 m (AMSL)
Location 51.148753° -0.192472°
Runways 2
Magnetic Variation 0.369° W

METAR

EGKK 222350Z 01010KT CAVOK 11/09 Q1020

Decode

TAF

TAF EGKK 222256Z 2300/2406 01010KT 9999 FEW045 PROB40 TEMPO 2300/2308 8000 BKN009 PROB30 TEMPO 2316/2406 6000 SHRA

Decode

Departure Runways

ID Width Length Bearing (true) Bearing (mag) Surface Threshold Offset Overrun Length
08L 148 ft / 45 m 8,377 ft / 2,553 m 77.69° 78.06° Asphalt 1,053 ft / 321 m 0 ft / 0 m
08R 148 ft / 45 m 10,341 ft / 3,152 m 77.59° 77.96° Asphalt 1,289 ft / 393 m 0 ft / 0 m
26L 148 ft / 45 m 10,341 ft / 3,152 m 257.63° 258.00° Asphalt 879 ft / 268 m 600 ft / 183 m
26R 148 ft / 45 m 8,377 ft / 2,553 m 257.71° 258.08° Asphalt 1,365 ft / 416 m 0 ft / 0 m

LDDU

Details ICAO LDDU (DBV)
Name DUBROVNIK
Region Croatia
Timezone Europe/Zagreb (UTC+2.0)
Stats Elevation 527 ft / 161 m (AMSL)
Location 42.562840° 18.264499°
Runways 1
Magnetic Variation 4.146° E

METAR

LDDU 230000Z 06008KT CAVOK 22/13 Q1015

Decode

TAF

TAF LDDU 222325Z 2300/2400 08006KT 9999 SCT033 TX24/2310Z TN20/2302Z PROB40 TEMPO 2306/2317 -TSRA FEW020CB FEW030TCU BKN033 BECMG 2309/2311 12012KT BECMG 2317/2319 VRB02KT

Decode

Destination Runways

ID Width Length Bearing (true) Bearing (mag) Surface Threshold Offset Overrun Length
12 148 ft / 45 m 10,803 ft / 3,293 m 118.30° 114.15° Asphalt 488 ft / 149 m 100 ft / 30 m
30 148 ft / 45 m 10,803 ft / 3,293 m 298.33° 294.18° Asphalt 0 ft / 0 m 100 ft / 30 m

Approach Navaids

Runway Type Ident Frequency Range Bearing (true) Bearing (mag) Slope Elevation
12 Localiser IDU 110.10 MHz 25 nm / 46 km 118.21° 114.06° - 469 ft / 143 m (AMSL)
12 Glidescope IDU 110.10 MHz 25 nm / 46 km 118.21° 114.06° 3.00° 502 ft / 153 m (AMSL)

Popular Alternatives